Time;durP1;ratioP1;P1;durP2;ratioP2;P2;SDS_P1;SDS_P2;PMS_P1;PMS_P2;Temp;Humidity;BMP_temperature;BMP_pressure;BME280_temperature;BME280_humidity;BME280_pressure;Samples;Min_cycle;Max_cycle;Signal;HPM_P1;HPM_P2
2020/12/04 00:00:58;;;;;;;13.18;10.85;;;;;;;3.59;98.89;98211.47;4994531;28;20110;-85
2020/12/04 00:03:24;;;;;;;14.40;10.20;;;;;;;3.54;98.56;98200.63;5023177;28;20073;-84
2020/12/04 00:05:49;;;;;;;15.48;11.80;;;;;;;3.54;98.11;98192.66;4995047;28;20103;-85
2020/12/04 00:08:15;;;;;;;15.18;10.95;;;;;;;3.56;99.01;98195.13;5028110;28;20046;-86
2020/12/04 00:10:40;;;;;;;15.25;11.05;;;;;;;3.54;99.14;98186.50;5028098;28;20095;-84
2020/12/04 00:13:05;;;;;;;16.27;10.55;;;;;;;3.54;99.52;98187.38;5029041;28;20049;-85
2020/12/04 00:15:31;;;;;;;16.88;11.50;;;;;;;3.54;100.00;98182.06;5011921;28;20049;-85
2020/12/04 00:17:57;;;;;;;15.68;11.68;;;;;;;3.52;100.00;98175.28;5030638;28;20065;-86
2020/12/04 00:20:22;;;;;;;16.20;10.40;;;;;;;3.49;100.00;98173.00;5017954;28;20099;-86
2020/12/04 00:22:48;;;;;;;17.80;12.07;;;;;;;3.50;100.00;98172.00;5005563;28;20057;-86
2020/12/04 00:25:13;;;;;;;18.33;13.30;;;;;;;3.50;100.00;98164.03;5010199;28;20033;-85
2020/12/04 00:27:39;;;;;;;18.10;11.73;;;;;;;3.45;100.00;98158.44;5011807;28;20069;-85
2020/12/04 00:30:04;;;;;;;16.95;11.93;;;;;;;3.43;100.00;98156.00;5025803;28;20053;-86
2020/12/04 00:32:30;;;;;;;18.90;12.68;;;;;;;3.47;100.00;98164.41;5009087;28;20060;-85
2020/12/04 00:34:55;;;;;;;17.17;11.82;;;;;;;3.46;100.00;98141.56;5025686;28;20041;-86
2020/12/04 00:37:21;;;;;;;16.05;11.65;;;;;;;3.45;100.00;98147.84;5013259;28;20124;-85
2020/12/04 00:39:46;;;;;;;18.67;13.07;;;;;;;3.48;100.00;98134.22;5020129;28;20212;-86
2020/12/04 00:42:12;;;;;;;16.85;11.57;;;;;;;3.47;100.00;98132.59;5028653;28;20130;-85
2020/12/04 00:44:37;;;;;;;17.25;11.95;;;;;;;3.44;100.00;98123.16;5036832;28;20836;-85
2020/12/04 00:47:03;;;;;;;17.20;12.57;;;;;;;3.46;100.00;98129.13;5012528;28;20516;-86
2020/12/04 00:49:29;;;;;;;16.40;11.95;;;;;;;3.46;100.00;98128.31;4997124;28;20143;-85
2020/12/04 00:51:55;;;;;;;15.55;11.50;;;;;;;3.45;100.00;98119.50;5017653;28;20057;-85
2020/12/04 00:54:21;;;;;;;16.55;12.27;;;;;;;3.48;100.00;98120.97;5007442;28;20049;-85
2020/12/04 00:56:46;;;;;;;18.13;11.75;;;;;;;3.48;100.00;98113.00;4988585;28;20053;-85
2020/12/04 00:59:12;;;;;;;16.60;12.20;;;;;;;3.46;100.00;98118.50;5005766;28;20049;-84
2020/12/04 01:01:37;;;;;;;17.73;12.43;;;;;;;3.47;100.00;98109.53;4986933;28;20041;-86
2020/12/04 01:04:02;;;;;;;18.52;12.82;;;;;;;3.47;100.00;98111.38;4993262;28;20041;-86
2020/12/04 01:06:28;;;;;;;18.55;11.57;;;;;;;3.47;100.00;98104.25;4992298;28;20069;-85
2020/12/04 01:08:53;;;;;;;15.55;11.68;;;;;;;3.46;100.00;98109.75;4975539;28;20133;-86
2020/12/04 01:11:20;;;;;;;18.83;12.82;;;;;;;3.45;100.00;98100.13;5015860;28;20501;-83
2020/12/04 01:13:46;;;;;;;18.73;12.45;;;;;;;3.48;100.00;98105.06;5032724;28;20053;-85
2020/12/04 01:16:12;;;;;;;19.73;13.05;;;;;;;3.50;100.00;98089.78;5008113;28;20033;-86
2020/12/04 01:18:38;;;;;;;18.77;11.77;;;;;;;3.46;100.00;98085.88;4989556;28;20042;-85
2020/12/04 01:21:05;;;;;;;19.30;12.82;;;;;;;3.49;100.00;98082.84;4998930;28;20401;-86
2020/12/04 01:23:30;;;;;;;16.88;10.85;;;;;;;3.45;100.00;98076.25;4986533;28;20091;-85
2020/12/04 01:25:56;;;;;;;18.58;12.55;;;;;;;3.50;100.00;98079.19;4994473;28;20548;-86
2020/12/04 01:28:21;;;;;;;16.10;11.52;;;;;;;3.48;100.00;98065.28;4987141;28;20037;-86
2020/12/04 01:30:47;;;;;;;16.23;11.55;;;;;;;3.49;100.00;98074.91;5009000;28;20045;-85
2020/12/04 01:33:12;;;;;;;16.63;10.55;;;;;;;3.45;100.00;98065.66;5015986;28;20091;-85
2020/12/04 01:35:37;;;;;;;17.77;12.30;;;;;;;3.48;100.00;98057.34;4991620;28;20116;-86
2020/12/04 01:38:03;;;;;;;17.73;12.00;;;;;;;3.44;100.00;98066.69;5009293;28;20426;-86
2020/12/04 01:40:31;;;;;;;17.27;11.43;;;;;;;3.43;100.00;98062.38;4999907;28;20501;-85
2020/12/04 01:42:56;;;;;;;18.08;12.60;;;;;;;3.44;100.00;98043.63;5004444;28;20511;-86
2020/12/04 01:45:22;;;;;;;18.70;12.20;;;;;;;3.44;100.00;98050.78;4991021;28;20099;-85
2020/12/04 01:47:47;;;;;;;20.25;13.38;;;;;;;3.47;100.00;98050.41;5008623;28;20430;-85
2020/12/04 01:50:13;;;;;;;16.65;11.32;;;;;;;3.43;100.00;98039.34;5009833;28;20208;-86
2020/12/04 01:52:38;;;;;;;19.65;12.98;;;;;;;3.43;100.00;98041.19;4985365;28;20107;-86
2020/12/04 01:55:04;;;;;;;17.40;12.20;;;;;;;3.45;100.00;98033.84;4996068;28;20110;-86
2020/12/04 01:57:34;;;;;;;17.30;12.63;;;;;;;3.42;100.00;98028.91;5000409;28;20044;-85
2020/12/04 02:00:00;;;;;;;16.70;12.63;;;;;;;3.41;100.00;98021.97;5018706;28;20041;-85
2020/12/04 02:02:25;;;;;;;20.42;12.23;;;;;;;3.39;100.00;98020.34;5022089;28;20140;-84
2020/12/04 02:04:51;;;;;;;20.55;13.27;;;;;;;3.42;100.00;98021.78;5018144;28;20041;-85
2020/12/04 02:07:53;;;;;;;15.95;11.50;;;;;;;3.41;100.00;98011.38;5007894;28;20543;-86
2020/12/04 02:10:24;;;;;;;19.67;12.43;;;;;;;3.38;100.00;98008.09;5014975;28;20135;-86
2020/12/04 02:12:52;;;;;;;16.55;11.68;;;;;;;3.39;100.00;97993.84;5018943;28;20451;-86
2020/12/04 02:15:18;;;;;;;18.33;12.90;;;;;;;3.44;100.00;97997.75;4998708;28;20042;-85
2020/12/04 02:17:45;;;;;;;19.02;12.65;;;;;;;3.44;100.00;97995.09;5019924;28;20049;-85
2020/12/04 02:20:12;;;;;;;19.40;12.10;;;;;;;3.44;100.00;97987.13;4995542;28;20049;-86
2020/12/04 02:22:38;;;;;;;18.40;12.80;;;;;;;3.46;100.00;97982.47;5007821;28;20052;-85
2020/12/04 02:25:07;;;;;;;18.10;12.27;;;;;;;3.45;100.00;97986.94;5029048;28;20041;-86
2020/12/04 02:27:32;;;;;;;16.00;11.27;;;;;;;3.47;100.00;97973.50;5030188;28;20041;-83
2020/12/04 02:29:58;;;;;;;15.48;11.38;;;;;;;3.46;100.00;97977.19;5026251;28;20045;-86
2020/12/04 02:32:23;;;;;;;18.65;11.73;;;;;;;3.47;100.00;97981.47;5010830;28;20048;-84
2020/12/04 02:34:49;;;;;;;18.90;12.13;;;;;;;3.48;100.00;97970.69;4989435;28;20033;-85
2020/12/04 02:37:15;;;;;;;16.60;11.60;;;;;;;3.48;100.00;97972.50;5011116;28;20042;-85
2020/12/04 02:39:40;;;;;;;15.70;10.00;;;;;;;3.50;100.00;97963.34;5023892;28;20057;-84
2020/12/04 02:42:06;;;;;;;15.55;10.82;;;;;;;3.50;100.00;97963.34;5025615;28;21340;-86
2020/12/04 02:44:32;;;;;;;15.45;10.18;;;;;;;3.52;100.00;97961.34;5027773;28;20489;-86
2020/12/04 02:46:57;;;;;;;15.65;10.70;;;;;;;3.54;100.00;97958.47;5026501;28;20034;-85
2020/12/04 02:49:23;;;;;;;18.38;11.77;;;;;;;3.53;100.00;97954.19;5024182;28;20037;-83
2020/12/04 02:51:49;;;;;;;16.30;10.80;;;;;;;3.53;100.00;97948.88;5020268;28;20065;-84
2020/12/04 02:54:17;;;;;;;16.55;11.02;;;;;;;3.53;100.00;97948.88;5018111;28;20073;-85
2020/12/04 02:56:43;;;;;;;15.93;11.05;;;;;;;3.53;100.00;97943.59;4988758;28;20714;-83
2020/12/04 02:59:09;;;;;;;16.38;11.13;;;;;;;3.54;100.00;97938.09;5014243;28;20044;-84
2020/12/04 03:01:36;;;;;;;13.88;9.65;;;;;;;3.53;100.00;97939.09;5024730;28;20073;-84
2020/12/04 03:04:02;;;;;;;14.80;10.48;;;;;;;3.55;100.00;97934.44;5021559;28;20030;-85
2020/12/04 03:06:27;;;;;;;16.30;9.95;;;;;;;3.56;100.00;97927.31;5021807;28;20523;-85
2020/12/04 03:08:53;;;;;;;15.05;10.70;;;;;;;3.57;100.00;97935.06;5042435;28;20045;-85
2020/12/04 03:11:20;;;;;;;14.82;9.88;;;;;;;3.59;100.00;97919.78;5017457;28;20030;-86
2020/12/04 03:13:45;;;;;;;17.10;10.75;;;;;;;3.59;100.00;97916.31;5006580;28;20045;-83
2020/12/04 03:16:10;;;;;;;12.95;9.00;;;;;;;3.60;100.00;97912.66;4988786;28;20038;-86
2020/12/04 03:18:36;;;;;;;14.95;10.15;;;;;;;3.61;100.00;97911.66;4990456;28;20060;-85
2020/12/04 03:21:01;;;;;;;12.90;9.05;;;;;;;3.63;100.00;97912.28;5010018;28;20114;-85
2020/12/04 03:23:27;;;;;;;13.00;8.90;;;;;;;3.61;100.00;97901.03;5027512;28;20037;-83
2020/12/04 03:25:55;;;;;;;13.90;9.93;;;;;;;3.63;100.00;97896.38;5027562;28;20029;-85
2020/12/04 03:28:22;;;;;;;15.15;10.23;;;;;;;3.66;100.00;97897.81;5030437;28;20041;-85
2020/12/04 03:30:47;;;;;;;13.70;10.57;;;;;;;3.66;100.00;97892.53;5010760;28;20049;-86
2020/12/04 03:33:13;;;;;;;13.68;9.80;;;;;;;3.64;100.00;97890.03;5027870;28;20048;-86
2020/12/04 03:35:38;;;;;;;13.15;8.85;;;;;;;3.64;100.00;97874.13;5003421;28;20037;-85
2020/12/04 03:38:04;;;;;;;12.07;8.32;;;;;;;3.67;100.00;97886.19;5022406;28;20046;-84
2020/12/04 03:40:29;;;;;;;13.77;7.90;;;;;;;3.67;100.00;97879.06;5009674;28;20784;-86
2020/12/04 03:42:54;;;;;;;12.10;8.57;;;;;;;3.69;100.00;97876.22;5021041;28;20508;-85
2020/12/04 03:45:20;;;;;;;13.85;8.95;;;;;;;3.70;100.00;97878.69;5011281;28;20389;-85
2020/12/04 03:47:45;;;;;;;13.85;8.85;;;;;;;3.71;100.00;97869.72;4996729;28;20476;-86
2020/12/04 03:50:11;;;;;;;13.20;9.30;;;;;;;3.70;100.00;97864.59;5021917;28;20571;-86
2020/12/04 03:52:36;;;;;;;13.05;8.65;;;;;;;3.70;100.00;97864.59;5013675;28;20069;-86
2020/12/04 03:55:02;;;;;;;12.70;8.98;;;;;;;3.70;100.00;97857.47;5017468;28;20088;-86
2020/12/04 03:57:27;;;;;;;13.38;8.52;;;;;;;3.71;100.00;97853.81;5026204;28;20069;-86
2020/12/04 03:59:53;;;;;;;11.30;8.18;;;;;;;3.72;100.00;97854.63;5025159;28;20049;-85
2020/12/04 04:02:18;;;;;;;10.93;8.70;;;;;;;3.72;100.00;97855.44;5015174;28;20388;-84
2020/12/04 04:04:44;;;;;;;12.27;8.68;;;;;;;3.75;100.00;97855.06;5020803;28;21079;-86
2020/12/04 04:07:09;;;;;;;12.40;8.80;;;;;;;3.77;100.00;97842.44;5030113;28;20064;-86
2020/12/04 04:09:35;;;;;;;11.80;8.48;;;;;;;3.76;100.00;97850.56;5023822;28;20056;-84
2020/12/04 04:12:00;;;;;;;11.07;7.60;;;;;;;3.77;100.00;97837.13;5027774;28;20553;-86
2020/12/04 04:14:25;;;;;;;10.75;8.10;;;;;;;3.81;100.00;97840.22;5000056;28;20037;-85
2020/12/04 04:16:51;;;;;;;10.25;7.72;;;;;;;3.81;100.00;97850.81;5026804;28;20498;-86
2020/12/04 04:19:17;;;;;;;11.27;7.65;;;;;;;3.82;100.00;97844.50;5001060;28;20502;-86
2020/12/04 04:21:42;;;;;;;10.68;8.02;;;;;;;3.83;100.00;97839.00;5038953;28;20056;-85
2020/12/04 04:24:08;;;;;;;12.18;7.32;;;;;;;3.86;100.00;97850.25;4994091;28;20402;-85
2020/12/04 04:26:33;;;;;;;10.65;8.32;;;;;;;3.87;100.00;97849.22;5016867;28;20037;-83
2020/12/04 04:28:59;;;;;;;10.60;8.02;;;;;;;3.88;100.00;97856.16;5023814;28;20041;-86
2020/12/04 04:31:24;;;;;;;10.90;7.38;;;;;;;3.89;100.00;97847.22;5015826;28;20049;-84
2020/12/04 04:33:50;;;;;;;10.57;7.65;;;;;;;3.91;100.00;97858.44;5029332;28;20041;-86
2020/12/04 04:36:16;;;;;;;11.45;7.70;;;;;;;3.92;100.00;97854.78;5027895;28;20044;-86
2020/12/04 04:38:41;;;;;;;10.82;7.05;;;;;;;3.91;100.00;97845.16;5044014;28;20129;-85
2020/12/04 04:41:07;;;;;;;10.43;7.78;;;;;;;3.92;100.00;97855.59;5030269;28;20037;-86
2020/12/04 04:43:32;;;;;;;11.70;7.10;;;;;;;3.94;100.00;97850.06;5009050;28;20038;-86
2020/12/04 04:46:19;;;;;;;10.65;7.47;;;;;;;3.93;100.00;97851.91;5022140;28;20029;-85
2020/12/04 04:48:54;;;;;;;12.15;8.02;;;;;;;3.93;100.00;97853.75;5019624;28;20046;-86
2020/12/04 04:51:22;;;;;;;12.68;8.80;;;;;;;3.93;100.00;97851.09;5023049;28;20066;-85
2020/12/04 04:53:54;;;;;;;11.00;8.13;;;;;;;3.91;100.00;97847.81;5028536;28;20042;-85
2020/12/04 04:56:20;;;;;;;12.10;8.57;;;;;;;3.91;100.00;97848.63;5010518;28;20379;-84
2020/12/04 04:58:46;;;;;;;11.80;8.32;;;;;;;3.91;100.00;97853.13;5031795;28;20049;-86
2020/12/04 05:01:11;;;;;;;11.13;8.00;;;;;;;3.91;100.00;97837.19;5002821;28;20046;-86
2020/12/04 05:03:36;;;;;;;11.73;7.70;;;;;;;3.92;100.00;97847.63;4991998;28;20198;-86
2020/12/04 05:06:05;;;;;;;11.20;7.57;;;;;;;3.93;100.00;97848.44;5017070;28;20114;-86
2020/12/04 05:08:30;;;;;;;11.57;8.43;;;;;;;3.93;100.00;97845.78;5012387;28;20053;-85
2020/12/04 05:11:09;;;;;;;11.98;8.13;;;;;;;3.94;100.00;97842.13;5021272;28;20121;-85
2020/12/04 05:13:35;;;;;;;11.32;7.95;;;;;;;3.95;100.00;97849.91;5020978;28;20053;-85
2020/12/04 05:16:00;;;;;;;9.65;6.72;;;;;;;3.94;100.00;97844.78;5029932;28;20501;-85
2020/12/04 05:18:26;;;;;;;11.82;7.90;;;;;;;3.95;100.00;97838.47;5044219;28;20380;-85
2020/12/04 05:20:53;;;;;;;12.95;7.78;;;;;;;3.94;100.00;97848.28;5028034;28;20033;-85
2020/12/04 05:23:19;;;;;;;10.55;7.90;;;;;;;3.96;100.00;97842.75;5033416;28;20083;-86
2020/12/04 05:25:47;;;;;;;10.48;7.28;;;;;;;3.97;100.00;97841.72;5018016;28;20057;-86
2020/12/04 05:28:29;;;;;;;12.43;8.57;;;;;;;3.99;100.00;97845.00;5027296;28;20042;-85
2020/12/04 05:31:10;;;;;;;10.18;7.50;;;;;;;3.98;100.00;97838.91;5002870;28;20050;-85
2020/12/04 05:33:37;;;;;;;11.43;7.00;;;;;;;4.01;100.00;97848.31;5031677;28;20120;-85
2020/12/04 05:36:04;;;;;;;10.38;7.28;;;;;;;4.04;100.00;97855.88;5045808;28;20393;-86
2020/12/04 05:38:29;;;;;;;11.43;7.82;;;;;;;4.06;100.00;97854.66;5020545;28;20041;-85
2020/12/04 05:41:03;;;;;;;9.00;6.85;;;;;;;4.09;100.00;97856.13;5014328;28;20037;-86
2020/12/04 05:43:34;;;;;;;8.98;5.97;;;;;;;4.11;100.00;97856.72;5026561;28;20088;-85
2020/12/04 05:46:25;;;;;;;9.00;6.30;;;;;;;4.16;100.00;97843.69;5020750;28;20050;-85
2020/12/04 05:49:08;;;;;;;8.30;5.25;;;;;;;4.19;100.00;97850.44;5021770;28;20045;-85
2020/12/04 05:51:38;;;;;;;8.27;5.60;;;;;;;4.22;100.00;97850.06;5028906;28;20547;-84
2020/12/04 05:54:05;;;;;;;7.75;5.20;;;;;;;4.24;100.00;97848.03;5028071;28;20073;-84
2020/12/04 05:56:32;;;;;;;7.35;5.25;;;;;;;4.29;100.00;97862.38;5027244;28;20116;-85
2020/12/04 05:59:01;;;;;;;7.88;5.03;;;;;;;4.32;100.00;97861.16;5028433;28;20440;-85
2020/12/04 06:01:27;;;;;;;6.45;4.20;;;;;;;4.37;100.00;97863.22;5008044;28;20046;-85
2020/12/04 06:03:55;;;;;;;8.18;4.70;;;;;;;4.41;100.00;97875.91;5008913;28;20040;-85
2020/12/04 06:06:31;;;;;;;6.32;4.15;;;;;;;4.45;100.00;97876.34;5017246;28;20033;-84
2020/12/04 06:09:04;;;;;;;5.70;3.72;;;;;;;4.49;100.00;97874.94;5001697;28;20168;-84
2020/12/04 06:11:32;;;;;;;5.97;4.35;;;;;;;4.53;100.00;97869.03;5026637;28;20083;-84
2020/12/04 06:13:59;;;;;;;5.22;3.85;;;;;;;4.56;100.00;97869.66;5029559;28;20100;-85
2020/12/04 06:16:24;;;;;;;6.93;4.50;;;;;;;4.59;100.00;97869.25;5013411;28;20030;-83
2020/12/04 06:18:49;;;;;;;5.70;3.78;;;;;;;4.58;100.00;97871.09;5030573;28;20048;-85
2020/12/04 06:21:15;;;;;;;5.93;4.00;;;;;;;4.58;100.00;97870.28;5030801;28;20065;-84
2020/12/04 06:24:04;;;;;;;7.35;4.05;;;;;;;4.58;100.00;97870.28;5029374;28;20064;-84
2020/12/04 06:26:49;;;;;;;6.85;4.20;;;;;;;4.58;99.99;97871.09;5027556;28;20065;-85
2020/12/04 06:29:15;;;;;;;7.75;4.30;;;;;;;4.58;99.86;97871.09;5030805;28;20556;-84
2020/12/04 06:31:41;;;;;;;5.82;3.95;;;;;;;4.59;99.64;97872.72;5026995;28;20049;-85
2020/12/04 06:34:13;;;;;;;7.82;4.40;;;;;;;4.59;99.48;97872.72;5018008;28;20046;-85
2020/12/04 06:36:39;;;;;;;6.00;3.95;;;;;;;4.63;98.78;97868.69;5008196;28;20061;-84
2020/12/04 06:39:05;;;;;;;6.55;3.80;;;;;;;4.66;98.45;97868.28;5016352;28;20045;-85
2020/12/04 06:41:44;;;;;;;5.63;3.90;;;;;;;4.69;98.02;97861.72;5016338;28;20111;-86
2020/12/04 06:44:21;;;;;;;5.72;3.92;;;;;;;4.72;97.78;97872.00;5024714;28;20060;-85
2020/12/04 06:46:49;;;;;;;5.45;3.55;;;;;;;4.71;97.84;97875.63;4976832;28;20037;-85
2020/12/04 06:52:18;;;;;;;4.45;3.38;;;;;;;4.74;96.78;97878.72;5011643;28;20037;-85
2020/12/04 06:54:49;;;;;;;5.63;3.80;;;;;;;4.77;96.53;97879.34;5017253;28;20048;-85
2020/12/04 06:57:18;;;;;;;5.32;3.50;;;;;;;4.82;96.33;97887.53;5013225;28;20050;-86
2020/12/04 06:59:44;;;;;;;5.13;2.97;;;;;;;4.85;95.58;97893.28;5026261;28;20133;-85
2020/12/04 07:02:12;;;;;;;4.25;3.00;;;;;;;4.89;95.00;97891.03;5030967;28;20050;-84
2020/12/04 07:04:46;;;;;;;6.28;3.65;;;;;;;4.92;95.14;97891.47;5039034;28;20049;-83
2020/12/04 07:07:26;;;;;;;4.95;3.08;;;;;;;4.90;94.89;97900.66;5024869;28;20049;-86
2020/12/04 07:09:53;;;;;;;5.43;2.90;;;;;;;4.91;94.76;97897.78;5000741;28;20069;-85
2020/12/04 07:12:20;;;;;;;5.07;3.40;;;;;;;4.92;94.82;97899.44;5031619;28;20041;-87
2020/12/04 07:14:49;;;;;;;6.50;3.35;;;;;;;4.92;94.88;97912.75;5033332;28;20045;-85
2020/12/04 07:17:17;;;;;;;4.95;3.33;;;;;;;4.92;94.54;97914.56;5032450;28;20036;-85
2020/12/04 07:19:49;;;;;;;3.95;2.75;;;;;;;4.93;94.47;97913.56;5035444;28;20528;-85
2020/12/04 07:22:16;;;;;;;5.07;3.53;;;;;;;4.96;94.74;97934.41;5036216;28;20065;-83
2020/12/04 07:24:43;;;;;;;6.60;2.88;;;;;;;4.97;94.45;97922.75;5036017;28;20041;-86
2020/12/04 07:27:13;;;;;;;4.82;3.40;;;;;;;4.99;94.66;97920.72;5033705;28;20155;-85
2020/12/04 07:29:39;;;;;;;5.72;2.83;;;;;;;5.02;94.54;97930.16;5009630;28;20593;-86
2020/12/04 07:32:06;;;;;;;4.20;2.90;;;;;;;5.03;94.61;97935.25;5033487;28;20037;-85
2020/12/04 07:34:35;;;;;;;3.55;2.40;;;;;;;5.06;94.50;97936.69;4990906;28;20046;-86
2020/12/04 07:37:02;;;;;;;4.40;2.92;;;;;;;5.07;94.25;97935.69;5009525;28;20116;-82
2020/12/04 07:39:31;;;;;;;4.85;3.22;;;;;;;5.10;94.18;97946.75;5006087;28;20049;-86
2020/12/04 07:41:58;;;;;;;4.85;3.28;;;;;;;5.15;94.06;97957.59;5009733;28;20093;-84
2020/12/04 07:44:34;;;;;;;5.85;3.40;;;;;;;5.14;94.12;97961.25;4988214;28;20045;-86
2020/12/04 07:47:05;;;;;;;5.53;3.22;;;;;;;5.17;93.89;97960.88;5010131;28;20041;-86
2020/12/04 07:49:31;;;;;;;4.90;3.10;;;;;;;5.19;93.45;97969.47;4992487;28;20065;-85
2020/12/04 07:52:14;;;;;;;5.00;2.90;;;;;;;5.24;93.17;97968.06;4985567;28;20042;-84
2020/12/04 07:54:41;;;;;;;6.05;2.72;;;;;;;5.24;93.52;97965.41;5006307;28;20050;-86
2020/12/04 07:57:07;;;;;;;3.88;2.53;;;;;;;5.23;93.38;97966.41;5011108;28;20106;-86
2020/12/04 07:59:35;;;;;;;4.18;2.50;;;;;;;5.27;93.11;97968.50;5020957;28;20047;-85
2020/12/04 08:02:02;;;;;;;5.38;2.40;;;;;;;5.30;93.07;97969.94;5030086;28;20508;-86
2020/12/04 08:04:28;;;;;;;3.67;2.10;;;;;;;5.30;93.16;97972.59;5030015;28;20099;-86
2020/12/04 08:07:08;;;;;;;4.15;2.65;;;;;;;5.33;92.94;97974.84;5028502;28;20033;-86
2020/12/04 08:09:52;;;;;;;4.28;2.55;;;;;;;5.37;92.95;97973.41;5027624;28;20037;-86
2020/12/04 08:12:21;;;;;;;5.78;2.63;;;;;;;5.39;92.88;97976.72;5047803;23;20060;-82
2020/12/04 08:14:49;;;;;;;3.72;2.28;;;;;;;5.43;92.47;97986.72;5053201;28;20049;-82
2020/12/04 08:17:18;;;;;;;3.63;2.07;;;;;;;5.48;92.41;97993.31;5049783;28;20132;-82
2020/12/04 08:19:43;;;;;;;2.93;1.77;;;;;;;5.50;92.46;97997.41;5035654;28;20529;-84
2020/12/04 08:22:09;;;;;;;4.00;2.17;;;;;;;5.52;92.21;97999.84;5019429;28;20054;-84
2020/12/04 08:24:37;;;;;;;3.88;2.08;;;;;;;5.55;92.11;97994.97;5031156;28;20106;-83
2020/12/04 08:27:07;;;;;;;3.35;2.30;;;;;;;5.57;92.24;97995.56;5015944;28;20045;-84
2020/12/04 08:33:29;;;;;;;4.13;2.35;;;;;;;5.62;92.05;98003.78;5020807;28;20445;-87
2020/12/04 08:35:57;;;;;;;2.90;1.90;;;;;;;5.64;92.02;98000.94;5034503;28;20045;-86
2020/12/04 08:38:25;;;;;;;3.20;1.83;;;;;;;5.68;92.19;98004.81;5010263;28;20038;-84
2020/12/04 08:40:53;;;;;;;3.60;1.90;;;;;;;5.72;91.65;97994.59;4993979;28;20114;-84
2020/12/04 08:43:23;;;;;;;3.17;1.70;;;;;;;5.75;91.51;97995.00;4994562;28;20041;-83
2020/12/04 08:45:51;;;;;;;6.22;1.90;;;;;;;5.76;91.94;97998.50;5010045;28;20093;-83
2020/12/04 08:48:19;;;;;;;4.75;2.28;;;;;;;5.80;91.42;98010.38;5012483;28;20065;-83
2020/12/04 08:50:45;;;;;;;4.25;2.00;;;;;;;5.82;91.23;98021.66;5012144;28;20046;-83
2020/12/04 08:53:14;;;;;;;3.63;2.10;;;;;;;5.85;91.35;98026.56;5011854;28;20046;-83
2020/12/04 08:58:30;;;;;;;3.30;1.90;;;;;;;5.86;90.82;98017.56;4988891;28;20036;-84
2020/12/04 09:00:57;;;;;;;3.55;1.77;;;;;;;5.87;91.11;98011.22;4972804;28;20073;-84
2020/12/04 09:03:27;;;;;;;3.33;1.88;;;;;;;5.88;91.12;98015.50;5011555;28;20049;-83
2020/12/04 09:05:55;;;;;;;3.03;1.95;;;;;;;5.89;90.98;98017.97;5011397;28;20107;-85
2020/12/04 09:08:21;;;;;;;4.03;2.00;;;;;;;5.94;91.01;98028.03;5008942;28;20033;-84
2020/12/04 09:10:47;;;;;;;2.97;1.80;;;;;;;5.96;90.62;98026.00;5005678;28;20421;-84
2020/12/04 09:13:14;;;;;;;4.28;1.90;;;;;;;6.00;90.77;98026.41;4985453;28;20038;-84
2020/12/04 09:15:40;;;;;;;3.70;2.03;;;;;;;6.03;90.86;98028.69;5010107;28;20104;-85
2020/12/04 09:18:11;;;;;;;4.03;1.60;;;;;;;6.04;91.06;98023.16;4991799;28;20054;-84
2020/12/04 09:20:39;;;;;;;3.92;1.85;;;;;;;6.06;90.85;98025.59;4999769;28;20106;-85
2020/12/04 09:23:18;;;;;;;3.53;1.80;;;;;;;6.09;90.62;98023.34;4992362;28;20030;-85
2020/12/04 09:25:44;;;;;;;3.60;2.10;;;;;;;6.15;90.68;98032.38;5003925;28;20042;-85
2020/12/04 09:28:09;;;;;;;2.45;1.67;;;;;;;6.18;90.93;98031.16;5022570;28;20045;-84
2020/12/04 09:30:35;;;;;;;3.40;1.75;;;;;;;6.20;90.52;98034.44;4994262;28;20038;-83
2020/12/04 09:33:02;;;;;;;2.83;1.90;;;;;;;6.21;90.67;98033.41;5010961;28;20074;-84
2020/12/04 09:35:29;;;;;;;2.90;1.60;;;;;;;6.23;90.34;98026.84;4986592;28;20037;-83
2020/12/04 09:37:54;;;;;;;2.83;1.60;;;;;;;6.25;90.15;98034.66;4990690;28;20095;-85
2020/12/04 09:40:20;;;;;;;3.45;1.80;;;;;;;6.28;90.16;98036.91;4988484;28;20045;-83
2020/12/04 09:42:47;;;;;;;3.58;1.90;;;;;;;6.33;90.18;98035.28;5040387;28;20523;-84
2020/12/04 09:45:16;;;;;;;3.65;1.83;;;;;;;6.37;89.91;98035.69;5026020;28;20497;-85
2020/12/04 09:47:41;;;;;;;3.22;1.88;;;;;;;6.38;89.72;98036.50;5001643;28;20052;-85
2020/12/04 09:50:10;;;;;;;3.65;1.80;;;;;;;6.43;89.29;98050.84;4999662;28;20046;-84
2020/12/04 09:52:39;;;;;;;3.83;1.70;;;;;;;6.52;89.62;98051.47;4987480;28;20064;-85
2020/12/04 09:55:05;;;;;;;2.80;1.77;;;;;;;6.60;89.10;98037.13;4994326;28;20084;-84
2020/12/04 09:57:33;;;;;;;2.65;1.60;;;;;;;6.65;88.97;98048.81;4992492;28;20044;-84
2020/12/04 10:00:00;;;;;;;3.92;1.70;;;;;;;6.72;88.52;98070.09;4996907;28;20092;-83
2020/12/04 10:02:28;;;;;;;3.97;1.42;;;;;;;6.77;87.58;98067.66;4960482;28;20045;-84
2020/12/04 10:04:54;;;;;;;3.28;1.20;;;;;;;6.84;87.28;98078.31;4985638;28;20038;-84
2020/12/04 10:07:20;;;;;;;2.33;1.20;;;;;;;6.88;87.25;98075.03;4997575;28;20073;-83
2020/12/04 10:09:46;;;;;;;3.75;1.17;;;;;;;6.93;86.76;98075.22;4969317;28;20058;-84
2020/12/04 10:12:12;;;;;;;2.58;1.27;;;;;;;6.98;86.37;98083.41;4992177;28;20397;-84
2020/12/04 10:14:40;;;;;;;1.95;1.13;;;;;;;7.03;85.96;98081.97;4974517;28;20041;-84
2020/12/04 10:17:08;;;;;;;3.22;1.30;;;;;;;7.06;86.39;98086.91;5007765;28;20125;-85
2020/12/04 10:19:33;;;;;;;3.90;1.23;;;;;;;7.09;86.10;98089.16;4992918;28;20390;-84
2020/12/04 10:21:59;;;;;;;1.85;1.00;;;;;;;7.10;85.66;98086.25;4968862;28;20089;-84
2020/12/04 10:24:27;;;;;;;2.83;1.25;;;;;;;7.14;84.68;98095.50;4981241;28;20037;-85
2020/12/04 10:26:52;;;;;;;1.52;1.00;;;;;;;7.19;85.19;98092.19;5024434;28;20045;-85
2020/12/04 10:29:18;;;;;;;1.25;0.90;;;;;;;7.21;85.15;98098.97;4983731;28;20057;-83
2020/12/04 10:31:45;;;;;;;3.95;1.10;;;;;;;7.25;84.52;98102.06;5038743;28;20056;-85
2020/12/04 10:34:12;;;;;;;1.63;0.90;;;;;;;7.26;84.47;98085.00;5032039;28;20039;-85
2020/12/04 10:36:39;;;;;;;3.83;1.35;;;;;;;7.28;83.73;98093.63;5033749;28;20053;-85
2020/12/04 10:39:08;;;;;;;3.05;1.60;;;;;;;7.32;84.80;98107.38;5030918;28;20098;-85
2020/12/04 10:41:36;;;;;;;3.45;1.17;;;;;;;7.32;84.44;98105.50;5030592;28;20420;-84
2020/12/04 10:44:04;;;;;;;3.95;1.70;;;;;;;7.35;84.54;98107.75;5022607;28;20037;-85
2020/12/04 10:46:31;;;;;;;2.40;1.00;;;;;;;7.37;83.50;98110.22;5031048;28;20029;-85
2020/12/04 10:48:57;;;;;;;2.30;1.20;;;;;;;7.38;83.70;98107.34;5045364;28;20051;-85
2020/12/04 10:51:23;;;;;;;2.50;1.10;;;;;;;7.37;82.51;98115.56;4999037;28;20125;-83
2020/12/04 10:53:49;;;;;;;2.53;1.00;;;;;;;7.40;83.24;98097.28;4990714;28;20540;-84
2020/12/04 10:56:22;;;;;;;2.13;0.90;;;;;;;7.45;83.35;98097.50;4948513;28;20038;-84
2020/12/04 10:58:49;;;;;;;2.47;1.10;;;;;;;7.47;82.07;98111.41;4972884;28;20105;-84
2020/12/04 11:01:17;;;;;;;1.85;1.02;;;;;;;7.47;81.67;98102.59;4997500;28;20030;-85
2020/12/04 11:06:19;;;;;;;2.03;0.88;;;;;;;7.46;82.06;98093.78;4996226;28;20057;-84
2020/12/04 11:08:46;;;;;;;;;;;;;;;7.50;82.00;98088.03;4977745;28;20565;-85
2020/12/04 11:11:12;;;;;;;4.38;1.73;;;;;;;7.48;82.17;98109.59;4992648;28;20404;-85
2020/12/04 11:13:39;;;;;;;1.20;0.80;;;;;;;7.54;82.41;98099.91;4961351;28;20076;-85
2020/12/04 11:16:05;;;;;;;2.67;1.20;;;;;;;7.58;81.16;98107.28;4968356;28;20074;-84
2020/12/04 11:18:31;;;;;;;2.45;1.00;;;;;;;7.61;81.75;98117.53;4976945;28;20039;-85
2020/12/04 11:20:57;;;;;;;3.08;1.50;;;;;;;7.63;81.78;98098.66;4999148;28;20113;-84
2020/12/04 11:23:22;;;;;;;2.67;1.60;;;;;;;7.63;81.33;98099.47;5021176;28;20037;-83
2020/12/04 11:25:54;;;;;;;3.33;1.40;;;;;;;7.64;81.10;98106.44;5014678;28;20064;-84
2020/12/04 11:28:20;;;;;;;2.70;0.90;;;;;;;7.65;80.97;98104.59;5040590;28;20037;-86
2020/12/04 11:30:46;;;;;;;2.40;1.10;;;;;;;7.68;81.54;98118.34;4996011;28;20080;-84
2020/12/04 11:33:12;;;;;;;3.60;1.30;;;;;;;7.70;80.11;98123.47;4994890;28;20042;-85
2020/12/04 11:35:38;;;;;;;1.98;1.10;;;;;;;7.71;81.02;98121.63;5009707;28;20642;-84
2020/12/04 11:38:04;;;;;;;3.67;1.00;;;;;;;7.73;81.10;98124.91;5007074;28;20461;-86
2020/12/04 11:40:30;;;;;;;2.90;1.13;;;;;;;7.73;81.36;98133.72;4994474;28;20091;-85
2020/12/04 11:42:56;;;;;;;1.50;1.00;;;;;;;7.73;80.85;98141.72;4994923;28;20037;-84
2020/12/04 11:45:22;;;;;;;3.38;1.35;;;;;;;7.74;80.71;98140.72;4998950;28;20072;-84